Time;durP1;ratioP1;P1;durP2;ratioP2;P2;SDS_P1;SDS_P2;PMS_P1;PMS_P2;Temp;Humidity;BMP_temperature;BMP_pressure;BME280_temperature;BME280_humidity;BME280_pressure;Samples;Min_cycle;Max_cycle;Signal;HPM_P1;HPM_P2
2022/11/06 00:00:28;;;;;;;;;;;13.20;99.90;;;;;;5092179;28;19908;-23
2022/11/06 00:02:58;;;;;;;;;;;13.20;99.90;;;;;;5091820;28;19908;-23
2022/11/06 00:08:08;;;;;;;;;;;13.20;99.90;;;;;;5092061;28;20011;-22
2022/11/06 00:10:33;;;;;;;;;;;13.20;99.90;;;;;;5092294;28;19948;-23
2022/11/06 00:12:59;;;;;;;;;;;13.20;99.90;;;;;;5091746;28;19908;-23
2022/11/06 00:15:24;;;;;;;;;;;13.10;99.90;;;;;;5092404;28;20506;-23
2022/11/06 00:17:50;;;;;;;;;;;13.20;99.90;;;;;;5091840;28;20433;-22
2022/11/06 00:20:15;;;;;;;;;;;13.20;99.90;;;;;;5090327;28;20293;-22
2022/11/06 00:22:41;;;;;;;;;;;13.20;99.90;;;;;;5092000;28;20010;-22
2022/11/06 00:25:07;;;;;;;;;;;13.20;99.90;;;;;;5091958;28;19912;-22
2022/11/06 00:27:35;;;;;;;;;;;13.20;99.90;;;;;;5091744;28;19957;-23
2022/11/06 00:30:00;;;;;;;;;;;13.10;99.90;;;;;;5091899;28;20317;-22
2022/11/06 00:32:26;;;;;;;;;;;13.10;99.90;;;;;;5091365;28;19908;-23
2022/11/06 00:34:51;;;;;;;;;;;13.10;99.90;;;;;;5091535;28;19965;-22
2022/11/06 00:37:17;;;;;;;;;;;13.10;99.90;;;;;;5091745;28;19954;-23
2022/11/06 00:39:42;;;;;;;;;;;13.10;99.90;;;;;;5091759;28;19912;-23
2022/11/06 00:42:08;;;;;;;;;;;13.10;99.90;;;;;;5091402;28;19965;-22
2022/11/06 00:44:33;;;;;;;;;;;13.10;99.90;;;;;;5091249;28;20450;-23
2022/11/06 00:46:59;;;;;;;;;;;13.10;99.90;;;;;;5091255;28;19916;-23
2022/11/06 00:49:26;;;;;;;;;;;13.10;99.90;;;;;;5091349;28;19959;-22
2022/11/06 00:51:52;;;;;;;;;;;13.10;99.90;;;;;;5091787;28;19908;-23
2022/11/06 00:54:17;;;;;;;;;;;13.10;99.90;;;;;;5091092;28;19916;-23
2022/11/06 00:56:43;;;;;;;;;;;13.10;99.90;;;;;;5091361;28;19919;-23
2022/11/06 00:59:10;;;;;;;;;;;13.10;99.90;;;;;;5091515;28;20316;-23
2022/11/06 01:01:37;;;;;;;;;;;13.10;99.90;;;;;;5091186;28;19911;-23
2022/11/06 01:04:04;;;;;;;;;;;13.10;99.90;;;;;;5091059;28;19983;-23
2022/11/06 01:06:31;;;;;;;;;;;13.10;99.90;;;;;;5091596;28;19912;-23
2022/11/06 01:08:57;;;;;;;;;;;13.10;99.90;;;;;;5091197;28;19998;-22
2022/11/06 01:11:27;;;;;;;;;;;13.10;99.90;;;;;;5091168;28;20396;-22
2022/11/06 01:13:54;;;;;;;;;;;13.10;99.90;;;;;;5091030;28;19961;-23
2022/11/06 01:16:20;;;;;;;;;;;13.10;99.90;;;;;;5089564;28;19947;-23
2022/11/06 01:18:45;;;;;;;;;;;13.10;99.90;;;;;;5090968;28;19997;-23
2022/11/06 01:21:13;;;;;;;;;;;13.10;99.90;;;;;;5091186;28;19916;-23
2022/11/06 01:23:39;;;;;;;;;;;13.10;99.90;;;;;;5090887;28;19908;-23
2022/11/06 01:26:05;;;;;;;;;;;13.10;99.90;;;;;;5091274;28;20011;-23
2022/11/06 01:28:31;;;;;;;;;;;13.10;99.90;;;;;;5091216;28;19962;-23
2022/11/06 01:31:01;;;;;;;;;;;13.10;99.90;;;;;;5090660;28;20380;-23
2022/11/06 01:33:27;;;;;;;;;;;13.10;99.90;;;;;;5090638;28;19908;-23
2022/11/06 01:35:52;;;;;;;;;;;13.10;99.90;;;;;;5093947;28;19912;-23
2022/11/06 01:38:18;;;;;;;;;;;13.10;99.90;;;;;;5094973;28;20285;-23
2022/11/06 01:40:45;;;;;;;;;;;13.10;99.90;;;;;;5093592;28;19920;-23
2022/11/06 01:43:22;;;;;;;;;;;13.00;99.90;;;;;;5095184;28;20136;-23
2022/11/06 01:45:49;;;;;;;;;;;13.10;99.90;;;;;;5095090;28;20346;-23
2022/11/06 01:48:15;;;;;;;;;;;13.10;99.90;;;;;;5094550;28;19916;-23
2022/11/06 01:50:43;;;;;;;;;;;13.00;99.90;;;;;;5094935;28;20002;-24
2022/11/06 01:53:10;;;;;;;;;;;13.00;99.90;;;;;;5094510;28;19990;-23
2022/11/06 01:55:38;;;;;;;;;;;13.00;99.90;;;;;;5094730;28;19912;-23
2022/11/06 01:58:05;;;;;;;;;;;13.00;99.90;;;;;;5094746;28;19912;-23
2022/11/06 02:00:31;;;;;;;;;;;13.00;99.90;;;;;;5094450;28;19912;-23
2022/11/06 02:02:57;;;;;;;;;;;13.00;99.90;;;;;;5094072;28;19933;-23
2022/11/06 02:05:23;;;;;;;;;;;13.00;99.90;;;;;;5094579;28;20057;-22
2022/11/06 02:07:48;;;;;;;;;;;13.00;99.90;;;;;;5094314;28;20003;-23
2022/11/06 02:10:14;;;;;;;;;;;13.00;99.90;;;;;;5094296;28;20381;-23
2022/11/06 02:12:42;;;;;;;;;;;13.00;99.90;;;;;;5093845;28;19912;-23
2022/11/06 02:15:24;;;;;;;;;;;13.00;99.90;;;;;;5094514;28;19908;-23
2022/11/06 02:17:50;;;;;;;;;;;13.00;99.90;;;;;;5094147;28;19959;-23
2022/11/06 02:20:27;;;;;;;;;;;13.00;99.90;;;;;;5094130;28;19951;-23
2022/11/06 02:23:07;;;;;;;;;;;12.90;99.90;;;;;;5093516;28;19912;-23
2022/11/06 02:25:37;;;;;;;;;;;13.00;99.90;;;;;;5094093;28;19912;-23
2022/11/06 02:28:07;;;;;;;;;;;12.90;99.90;;;;;;5093819;28;19912;-23
2022/11/06 02:30:35;;;;;;;;;;;12.90;99.90;;;;;;5094289;28;20281;-23
2022/11/06 02:33:30;;;;;;;;;;;12.90;99.90;;;;;;5093551;28;19923;-23
2022/11/06 02:36:00;;;;;;;;;;;12.90;99.90;;;;;;5084861;28;19912;-23
2022/11/06 02:38:27;;;;;;;;;;;13.00;99.90;;;;;;5093862;28;19930;-23
2022/11/06 02:40:56;;;;;;;;;;;12.90;99.90;;;;;;5093576;28;20011;-23
2022/11/06 02:43:25;;;;;;;;;;;12.90;99.90;;;;;;5093530;28;19908;-23
2022/11/06 02:45:59;;;;;;;;;;;12.90;99.90;;;;;;5093227;28;19927;-23
2022/11/06 02:48:37;;;;;;;;;;;12.90;99.90;;;;;;5093229;28;19916;-23
2022/11/06 02:51:04;;;;;;;;;;;12.90;99.90;;;;;;5093765;28;19912;-23
2022/11/06 02:53:30;;;;;;;;;;;12.90;99.90;;;;;;5093358;28;19995;-23
2022/11/06 02:55:58;;;;;;;;;;;12.90;99.90;;;;;;5093670;28;19916;-22
2022/11/06 02:58:29;;;;;;;;;;;12.90;99.90;;;;;;5093263;28;19915;-23
2022/11/06 03:01:00;;;;;;;;;;;12.90;99.90;;;;;;5093459;28;19908;-22
2022/11/06 03:03:29;;;;;;;;;;;12.90;99.90;;;;;;5093195;28;19908;-23
2022/11/06 03:05:57;;;;;;;;;;;12.90;99.90;;;;;;5093619;28;19909;-23
2022/11/06 03:08:25;;;;;;;;;;;12.90;99.90;;;;;;5093248;28;19916;-22
2022/11/06 03:11:00;;;;;;;;;;;12.90;99.90;;;;;;5092968;28;19938;-23
2022/11/06 03:13:37;;;;;;;;;;;12.90;99.90;;;;;;5092792;28;20011;-23
2022/11/06 03:16:06;;;;;;;;;;;12.90;99.90;;;;;;5093441;28;19919;-23
2022/11/06 03:18:34;;;;;;;;;;;12.90;99.90;;;;;;5092973;28;20006;-22
2022/11/06 03:21:01;;;;;;;;;;;12.90;99.90;;;;;;5093063;28;20003;-23
2022/11/06 03:23:27;;;;;;;;;;;12.90;99.90;;;;;;5092463;28;19914;-23
2022/11/06 03:25:52;;;;;;;;;;;12.90;99.90;;;;;;5093341;28;20193;-23
2022/11/06 03:28:24;;;;;;;;;;;12.90;99.90;;;;;;5092886;28;19923;-23
2022/11/06 03:30:53;;;;;;;;;;;12.90;99.90;;;;;;5092833;28;19915;-23
2022/11/06 03:33:27;;;;;;;;;;;12.80;99.90;;;;;;5092670;28;20786;-23
2022/11/06 03:36:00;;;;;;;;;;;12.90;99.90;;;;;;5092633;28;20059;-23
2022/11/06 03:38:38;;;;;;;;;;;12.90;99.90;;;;;;5092724;28;19915;-23
2022/11/06 03:41:09;;;;;;;;;;;12.80;99.90;;;;;;5092548;28;19920;-23
2022/11/06 03:43:35;;;;;;;;;;;12.80;99.90;;;;;;5092134;28;19912;-23
2022/11/06 03:46:03;;;;;;;;;;;12.80;99.90;;;;;;5092592;28;19938;-23
2022/11/06 03:48:35;;;;;;;;;;;12.80;99.90;;;;;;5092269;28;19961;-23
2022/11/06 03:51:03;;;;;;;;;;;12.80;99.90;;;;;;5092557;28;20274;-23
2022/11/06 03:53:35;;;;;;;;;;;12.80;99.90;;;;;;5092389;28;19938;-22
2022/11/06 03:56:06;;;;;;;;;;;12.80;99.90;;;;;;5093891;28;19999;-23
2022/11/06 03:58:35;;;;;;;;;;;12.80;99.90;;;;;;5092919;28;19908;-23
2022/11/06 04:01:02;;;;;;;;;;;12.80;99.90;;;;;;5091471;28;19931;-22
2022/11/06 04:03:40;;;;;;;;;;;12.80;99.90;;;;;;5091879;28;19916;-23
2022/11/06 04:06:17;;;;;;;;;;;12.80;99.90;;;;;;5092492;28;19911;-23
2022/11/06 04:14:18;;;;;;;;;;;12.80;99.90;;;;;;5091944;28;19915;-23
2022/11/06 04:16:46;;;;;;;;;;;12.80;99.90;;;;;;5092097;28;19914;-23
2022/11/06 04:19:13;;;;;;;;;;;12.80;99.90;;;;;;5091955;28;19912;-23
2022/11/06 04:21:48;;;;;;;;;;;12.80;99.90;;;;;;5091925;28;20270;-23
2022/11/06 04:27:12;;;;;;;;;;;12.80;99.90;;;;;;5091722;28;20285;-22
2022/11/06 04:29:41;;;;;;;;;;;12.70;99.90;;;;;;5091732;28;19912;-23
2022/11/06 04:32:25;;;;;;;;;;;12.70;99.90;;;;;;5091628;28;19915;-23
2022/11/06 04:35:03;;;;;;;;;;;12.70;99.90;;;;;;5091625;28;19923;-23
2022/11/06 04:37:47;;;;;;;;;;;12.70;99.90;;;;;;5091897;28;19908;-23
2022/11/06 04:40:24;;;;;;;;;;;12.70;99.90;;;;;;5091439;28;19923;-23
2022/11/06 04:43:11;;;;;;;;;;;12.70;99.90;;;;;;5091202;28;20589;-23
2022/11/06 04:45:40;;;;;;;;;;;12.70;99.90;;;;;;5091382;28;19908;-23
2022/11/06 04:48:06;;;;;;;;;;;12.70;99.90;;;;;;5091361;28;19912;-23
2022/11/06 04:50:35;;;;;;;;;;;12.70;99.90;;;;;;5091414;28;19915;-23
2022/11/06 04:53:01;;;;;;;;;;;12.70;99.90;;;;;;5090898;28;19916;-23
2022/11/06 04:55:28;;;;;;;;;;;12.70;99.90;;;;;;5091465;28;19908;-23
2022/11/06 04:57:53;;;;;;;;;;;12.70;99.90;;;;;;5091353;28;19912;-23
2022/11/06 05:00:19;;;;;;;;;;;12.70;99.90;;;;;;5091258;28;19915;-23
2022/11/06 05:02:44;;;;;;;;;;;12.70;99.90;;;;;;5091284;28;20394;-23
2022/11/06 05:05:10;;;;;;;;;;;12.70;99.90;;;;;;5091441;28;19912;-23
2022/11/06 05:07:36;;;;;;;;;;;12.70;99.90;;;;;;5091084;28;20423;-23
2022/11/06 05:10:01;;;;;;;;;;;12.70;99.90;;;;;;5091342;28;19912;-23
2022/11/06 05:12:27;;;;;;;;;;;12.70;99.90;;;;;;5095130;28;20366;-23
2022/11/06 05:14:52;;;;;;;;;;;12.60;99.90;;;;;;5095330;28;20288;-23
2022/11/06 05:17:18;;;;;;;;;;;12.70;99.90;;;;;;5095366;28;19908;-23
2022/11/06 05:19:43;;;;;;;;;;;12.70;99.90;;;;;;5095314;28;19908;-22
2022/11/06 05:24:53;;;;;;;;;;;12.60;99.90;;;;;;5095231;28;19916;-22
2022/11/06 05:27:18;;;;;;;;;;;12.70;99.90;;;;;;5095278;28;19912;-23
2022/11/06 05:29:44;;;;;;;;;;;12.60;99.90;;;;;;5095246;28;19915;-23
2022/11/06 05:32:09;;;;;;;;;;;12.60;99.90;;;;;;5095340;28;19916;-23
2022/11/06 05:34:35;;;;;;;;;;;12.60;99.90;;;;;;5094667;28;19946;-23
2022/11/06 05:37:01;;;;;;;;;;;12.60;99.90;;;;;;5095196;28;19969;-23
2022/11/06 05:39:26;;;;;;;;;;;12.60;99.90;;;;;;5094788;28;19912;-23
2022/11/06 05:41:52;;;;;;;;;;;12.60;99.90;;;;;;5094733;28;19920;-22
2022/11/06 05:44:17;;;;;;;;;;;12.60;99.90;;;;;;5094347;28;19912;-23
2022/11/06 05:46:43;;;;;;;;;;;12.60;99.90;;;;;;5093258;28;19970;-23
2022/11/06 05:49:08;;;;;;;;;;;12.60;99.90;;;;;;5094669;28;19908;-23
2022/11/06 05:51:34;;;;;;;;;;;12.60;99.90;;;;;;5094309;28;20430;-23
2022/11/06 05:54:00;;;;;;;;;;;12.60;99.90;;;;;;5094306;28;19912;-23
2022/11/06 05:56:25;;;;;;;;;;;12.60;99.90;;;;;;5094605;28;20388;-23
2022/11/06 05:58:51;;;;;;;;;;;12.60;99.90;;;;;;5094741;28;19978;-23
2022/11/06 06:01:16;;;;;;;;;;;12.60;99.90;;;;;;5093075;28;19912;-23
2022/11/06 06:03:42;;;;;;;;;;;12.60;99.90;;;;;;5093917;28;19935;-23
2022/11/06 06:06:07;;;;;;;;;;;12.50;99.90;;;;;;5094546;28;19959;-23
2022/11/06 06:08:33;;;;;;;;;;;12.60;99.90;;;;;;5094204;28;19970;-23
2022/11/06 06:10:58;;;;;;;;;;;12.60;99.90;;;;;;5094471;28;19923;-23
2022/11/06 06:13:24;;;;;;;;;;;12.60;99.90;;;;;;5092820;28;19950;-23
2022/11/06 06:15:49;;;;;;;;;;;12.50;99.90;;;;;;5094346;28;19908;-23
2022/11/06 06:18:15;;;;;;;;;;;12.60;99.90;;;;;;5094083;28;19908;-22
2022/11/06 06:20:40;;;;;;;;;;;12.50;99.90;;;;;;5093247;28;20378;-23
2022/11/06 06:23:06;;;;;;;;;;;12.50;99.90;;;;;;5092859;28;19908;-23
2022/11/06 06:25:31;;;;;;;;;;;12.50;99.90;;;;;;5094071;28;19957;-23
2022/11/06 06:27:57;;;;;;;;;;;12.50;99.90;;;;;;5093808;28;19958;-23
2022/11/06 06:30:23;;;;;;;;;;;12.50;99.90;;;;;;5094028;28;20010;-22
2022/11/06 06:32:49;;;;;;;;;;;12.50;99.90;;;;;;5093451;28;20277;-23
2022/11/06 06:35:16;;;;;;;;;;;12.50;99.90;;;;;;5093893;28;20384;-23
2022/11/06 06:37:42;;;;;;;;;;;12.50;99.90;;;;;;5093966;28;19966;-23
2022/11/06 06:40:08;;;;;;;;;;;12.50;99.90;;;;;;5093677;28;20319;-23
2022/11/06 06:42:34;;;;;;;;;;;12.50;99.90;;;;;;5093396;28;19962;-23
2022/11/06 06:44:59;;;;;;;;;;;12.50;99.90;;;;;;5093807;28;19908;-23
2022/11/06 06:47:25;;;;;;;;;;;12.50;99.90;;;;;;5093423;28;20315;-23
2022/11/06 06:49:51;;;;;;;;;;;12.50;99.90;;;;;;5093551;28;19918;-22
2022/11/06 06:52:16;;;;;;;;;;;12.50;99.90;;;;;;5093370;28;20369;-22
2022/11/06 06:54:42;;;;;;;;;;;12.50;99.90;;;;;;5093226;28;19908;-23
2022/11/06 06:57:07;;;;;;;;;;;12.50;99.90;;;;;;5093587;28;20006;-23
2022/11/06 06:59:33;;;;;;;;;;;12.50;99.90;;;;;;5093388;28;20424;-23
2022/11/06 07:01:58;;;;;;;;;;;12.50;99.90;;;;;;5093347;28;19908;-23
2022/11/06 07:04:24;;;;;;;;;;;12.50;99.90;;;;;;5093392;28;20361;-23
2022/11/06 07:06:52;;;;;;;;;;;12.50;99.90;;;;;;5093212;28;19915;-23
2022/11/06 07:09:17;;;;;;;;;;;12.50;99.90;;;;;;5093230;28;19908;-23
2022/11/06 07:11:43;;;;;;;;;;;12.50;99.90;;;;;;5093430;28;19908;-23
2022/11/06 07:14:09;;;;;;;;;;;12.50;99.90;;;;;;5092818;28;19908;-23
2022/11/06 07:16:35;;;;;;;;;;;12.50;99.90;;;;;;5093096;28;19969;-23
2022/11/06 07:19:00;;;;;;;;;;;12.50;99.90;;;;;;5093008;28;20368;-23
2022/11/06 07:21:26;;;;;;;;;;;12.60;99.90;;;;;;5092894;28;19912;-23
2022/11/06 07:23:51;;;;;;;;;;;12.60;99.90;;;;;;5091111;28;19916;-23
2022/11/06 07:26:17;;;;;;;;;;;12.60;99.90;;;;;;5093071;28;19958;-22
2022/11/06 07:28:42;;;;;;;;;;;12.60;99.90;;;;;;5093082;28;19916;-22
2022/11/06 07:31:08;;;;;;;;;;;12.60;99.90;;;;;;5092841;28;20008;-23
2022/11/06 07:33:34;;;;;;;;;;;12.60;99.90;;;;;;5091859;28;19918;-23
2022/11/06 07:36:03;;;;;;;;;;;12.60;99.90;;;;;;5092850;28;19961;-22
2022/11/06 07:38:29;;;;;;;;;;;12.70;99.90;;;;;;5092712;28;19908;-23
2022/11/06 07:40:54;;;;;;;;;;;12.70;99.90;;;;;;5093390;28;19995;-22
2022/11/06 07:43:20;;;;;;;;;;;12.70;99.90;;;;;;5093455;28;20323;-23
2022/11/06 07:45:46;;;;;;;;;;;12.70;99.90;;;;;;5093413;28;20373;-22
2022/11/06 07:48:11;;;;;;;;;;;12.70;99.90;;;;;;5092731;28;19916;-23
2022/11/06 07:50:37;;;;;;;;;;;12.70;99.90;;;;;;5092486;28;19946;-23
2022/11/06 07:53:02;;;;;;;;;;;12.80;99.90;;;;;;5091905;28;20433;-22
2022/11/06 07:55:28;;;;;;;;;;;12.80;99.90;;;;;;5092413;28;19958;-23
2022/11/06 07:57:53;;;;;;;;;;;12.80;99.90;;;;;;5092345;28;20052;-23
2022/11/06 08:00:20;;;;;;;;;;;12.90;99.90;;;;;;5092294;28;19908;-23
2022/11/06 08:02:49;;;;;;;;;;;12.90;99.90;;;;;;5091685;28;19915;-23
2022/11/06 08:05:14;;;;;;;;;;;12.90;99.90;;;;;;5092142;28;20300;-22
2022/11/06 08:07:40;;;;;;;;;;;13.00;99.90;;;;;;5092012;28;19916;-23
2022/11/06 08:10:06;;;;;;;;;;;13.00;99.90;;;;;;5092105;28;19908;-23
2022/11/06 08:12:31;;;;;;;;;;;13.00;99.90;;;;;;5091497;28;19933;-23
2022/11/06 08:14:57;;;;;;;;;;;13.00;99.90;;;;;;5092037;28;19966;-23
2022/11/06 08:17:22;;;;;;;;;;;13.00;99.90;;;;;;5091846;28;19950;-23
2022/11/06 08:19:48;;;;;;;;;;;13.00;99.90;;;;;;5091944;28;19912;-23
2022/11/06 08:22:13;;;;;;;;;;;13.10;99.90;;;;;;5091605;28;20357;-23
2022/11/06 08:24:39;;;;;;;;;;;13.10;99.90;;;;;;5091410;28;19908;-23
2022/11/06 08:27:04;;;;;;;;;;;13.10;99.90;;;;;;5091790;28;20369;-23
2022/11/06 08:29:30;;;;;;;;;;;13.10;99.90;;;;;;5091723;28;19912;-22
2022/11/06 08:31:55;;;;;;;;;;;13.20;99.90;;;;;;5091544;28;19926;-23
2022/11/06 08:34:21;;;;;;;;;;;13.20;99.90;;;;;;5091349;28;19947;-22
2022/11/06 08:36:49;;;;;;;;;;;13.20;99.90;;;;;;5091578;28;19931;-22
2022/11/06 08:39:14;;;;;;;;;;;13.30;99.90;;;;;;5091664;28;20254;-22
2022/11/06 08:41:40;;;;;;;;;;;13.30;99.90;;;;;;5091448;28;19931;-23
2022/11/06 08:44:06;;;;;;;;;;;13.30;99.90;;;;;;5090305;28;19920;-23
2022/11/06 08:46:31;;;;;;;;;;;13.30;99.90;;;;;;5091531;28;19912;-23
2022/11/06 08:48:57;;;;;;;;;;;13.30;99.90;;;;;;5091410;28;19933;-22
2022/11/06 08:51:22;;;;;;;;;;;13.40;99.90;;;;;;5091405;28;19953;-23
2022/11/06 08:53:48;;;;;;;;;;;13.40;99.90;;;;;;5090820;28;19908;-23
2022/11/06 08:56:13;;;;;;;;;;;13.40;99.90;;;;;;5091453;28;19908;-22
2022/11/06 08:58:39;;;;;;;;;;;13.50;99.90;;;;;;5091194;28;19912;-22
2022/11/06 09:01:04;;;;;;;;;;;13.50;99.90;;;;;;5091228;28;19916;-23
2022/11/06 09:03:30;;;;;;;;;;;13.50;99.90;;;;;;5090925;28;19915;-23
2022/11/06 09:05:56;;;;;;;;;;;13.50;99.90;;;;;;5091565;28;20365;-23
2022/11/06 09:08:23;;;;;;;;;;;13.50;99.90;;;;;;5091313;28;20414;-22
2022/11/06 09:10:48;;;;;;;;;;;13.50;99.90;;;;;;5091223;28;20392;-22
2022/11/06 09:13:14;;;;;;;;;;;13.50;99.90;;;;;;5090904;28;19908;-23
2022/11/06 09:15:39;;;;;;;;;;;13.60;99.90;;;;;;5091404;28;19912;-23
2022/11/06 09:18:05;;;;;;;;;;;13.60;99.90;;;;;;5091243;28;19915;-23
2022/11/06 09:20:31;;;;;;;;;;;13.60;99.90;;;;;;5091144;28;19919;-22
2022/11/06 09:23:01;;;;;;;;;;;13.60;99.90;;;;;;5090604;28;19909;-23
2022/11/06 09:25:26;;;;;;;;;;;13.60;99.90;;;;;;5091054;28;19908;-23
2022/11/06 09:27:52;;;;;;;;;;;13.60;99.90;;;;;;5090763;28;19912;-23
2022/11/06 09:30:19;;;;;;;;;;;13.60;99.90;;;;;;5090917;28;19920;-22
2022/11/06 09:32:51;;;;;;;;;;;13.60;99.90;;;;;;5090416;28;19912;-22
2022/11/06 09:35:17;;;;;;;;;;;13.60;99.90;;;;;;5091086;28;19908;-22
2022/11/06 09:37:43;;;;;;;;;;;13.60;99.90;;;;;;5090881;28;20358;-22
2022/11/06 09:40:16;;;;;;;;;;;13.70;99.90;;;;;;5090586;28;19916;-22
2022/11/06 09:42:49;;;;;;;;;;;13.70;99.90;;;;;;5090385;28;19955;-22
2022/11/06 09:45:21;;;;;;;;;;;13.70;99.90;;;;;;5090774;28;19947;-23
2022/11/06 09:47:54;;;;;;;;;;;13.70;99.90;;;;;;5090815;28;19927;-22
2022/11/06 09:50:22;;;;;;;;;;;13.70;99.90;;;;;;5090900;28;19951;-22
2022/11/06 09:52:50;;;;;;;;;;;13.70;99.90;;;;;;5090391;28;19974;-22
2022/11/06 09:55:28;;;;;;;;;;;13.80;99.90;;;;;;5090900;28;19912;-22
2022/11/06 09:57:56;;;;;;;;;;;13.80;99.90;;;;;;5094519;28;19912;-22
2022/11/06 10:00:22;;;;;;;;;;;13.80;99.90;;;;;;5094558;28;20433;-23
2022/11/06 10:02:55;;;;;;;;;;;13.80;99.90;;;;;;5094087;28;19994;-22
2022/11/06 10:05:28;;;;;;;;;;;13.80;99.90;;;;;;5094498;28;20384;-22
2022/11/06 10:07:55;;;;;;;;;;;13.80;99.90;;;;;;5094239;28;20432;-23
2022/11/06 10:10:25;;;;;;;;;;;13.80;99.90;;;;;;5094247;28;20336;-23
2022/11/06 10:13:00;;;;;;;;;;;13.80;99.90;;;;;;5094224;28;19951;-22
2022/11/06 10:15:26;;;;;;;;;;;13.90;99.90;;;;;;5094168;28;20049;-22
2022/11/06 10:17:57;;;;;;;;;;;13.80;99.90;;;;;;5094028;28;20011;-22
2022/11/06 10:20:35;;;;;;;;;;;13.80;99.90;;;;;;5094069;28;19916;-22
2022/11/06 10:23:10;;;;;;;;;;;13.80;99.90;;;;;;5093627;28;19912;-22
2022/11/06 10:25:43;;;;;;;;;;;13.80;99.90;;;;;;5094126;28;19916;-22
2022/11/06 10:28:23;;;;;;;;;;;13.80;99.90;;;;;;5093779;28;20002;-22
2022/11/06 10:31:02;;;;;;;;;;;13.80;99.90;;;;;;5094078;28;19911;-23
2022/11/06 10:33:30;;;;;;;;;;;13.80;99.90;;;;;;5093666;28;19915;-23
2022/11/06 10:35:59;;;;;;;;;;;13.80;99.90;;;;;;5093947;28;19915;-23
2022/11/06 10:38:28;;;;;;;;;;;13.80;99.90;;;;;;5093915;28;19908;-23
2022/11/06 10:40:54;;;;;;;;;;;13.80;99.90;;;;;;5093574;28;19916;-22
2022/11/06 10:43:23;;;;;;;;;;;13.80;99.90;;;;;;5093324;28;19908;-23
2022/11/06 10:45:51;;;;;;;;;;;13.80;99.90;;;;;;5093789;28;19915;-22
2022/11/06 10:48:23;;;;;;;;;;;13.80;99.90;;;;;;5093878;28;19911;-22
2022/11/06 10:51:04;;;;;;;;;;;13.70;99.90;;;;;;5093965;28;19918;-22
2022/11/06 10:53:39;;;;;;;;;;;13.70;99.90;;;;;;5094193;28;19908;-23
2022/11/06 10:56:12;;;;;;;;;;;13.70;99.90;;;;;;5093606;28;19908;-23
2022/11/06 10:58:37;;;;;;;;;;;13.70;99.90;;;;;;5093601;28;20098;-22
2022/11/06 11:01:04;;;;;;;;;;;13.60;99.90;;;;;;5093719;28;19999;-23
2022/11/06 11:03:38;;;;;;;;;;;13.70;99.90;;;;;;5093532;28;19914;-23
2022/11/06 11:06:04;;;;;;;;;;;13.60;99.90;;;;;;5093402;28;20400;-23
2022/11/06 11:08:30;;;;;;;;;;;13.60;99.90;;;;;;5092550;28;19912;-22
2022/11/06 11:11:14;;;;;;;;;;;13.60;99.90;;;;;;5093201;28;19955;-23
2022/11/06 11:13:40;;;;;;;;;;;13.60;99.90;;;;;;5092876;28;19934;-23
2022/11/06 11:16:35;;;;;;;;;;;13.60;99.90;;;;;;5093064;28;19915;-22
2022/11/06 11:19:19;;;;;;;;;;;13.60;99.90;;;;;;5082853;28;19937;-23
2022/11/06 11:21:51;;;;;;;;;;;13.60;99.90;;;;;;5092751;28;20380;-23
2022/11/06 11:24:16;;;;;;;;;;;13.60;99.90;;;;;;5092655;28;20242;-23
2022/11/06 11:26:43;;;;;;;;;;;13.60;99.90;;;;;;5092998;28;19962;-22
2022/11/06 11:29:12;;;;;;;;;;;13.70;99.90;;;;;;5092714;28;20464;-22
2022/11/06 11:31:38;;;;;;;;;;;13.70;99.90;;;;;;5092876;28;19914;-23
2022/11/06 11:34:05;;;;;;;;;;;13.70;99.90;;;;;;5090911;28;19908;-22
2022/11/06 11:36:46;;;;;;;;;;;13.70;99.90;;;;;;5092816;28;20374;-22
2022/11/06 11:39:13;;;;;;;;;;;13.70;99.90;;;;;;5092632;28;20360;-23
2022/11/06 11:41:38;;;;;;;;;;;13.70;99.90;;;;;;5092623;28;19927;-23
2022/11/06 11:44:05;;;;;;;;;;;13.70;99.90;;;;;;5092465;28;19908;-23
2022/11/06 11:46:31;;;;;;;;;;;13.80;99.90;;;;;;5092847;28;19916;-22
2022/11/06 11:48:57;;;;;;;;;;;13.80;99.90;;;;;;5092597;28;20262;-23
2022/11/06 11:51:32;;;;;;;;;;;13.80;99.90;;;;;;5092397;28;19947;-23
2022/11/06 11:54:10;;;;;;;;;;;13.90;99.90;;;;;;5092301;28;19908;-23
2022/11/06 11:56:43;;;;;;;;;;;13.90;99.90;;;;;;5092438;28;20412;-22
2022/11/06 11:59:14;;;;;;;;;;;13.90;99.90;;;;;;5092345;28;20344;-23
2022/11/06 12:01:40;;;;;;;;;;;13.90;99.90;;;;;;5092153;28;19908;-22
2022/11/06 12:04:15;;;;;;;;;;;13.90;99.90;;;;;;5091694;28;19918;-23
2022/11/06 12:06:51;;;;;;;;;;;13.90;99.90;;;;;;5092105;28;19908;-23
2022/11/06 12:09:17;;;;;;;;;;;13.90;99.90;;;;;;5092043;28;20346;-23
2022/11/06 12:11:43;;;;;;;;;;;13.90;99.90;;;;;;5091294;28;19909;-23
2022/11/06 12:14:15;;;;;;;;;;;13.90;99.90;;;;;;5091109;28;19908;-23
2022/11/06 12:16:42;;;;;;;;;;;13.90;99.90;;;;;;5091285;28;20501;-23
2022/11/06 12:19:08;;;;;;;;;;;13.90;99.90;;;;;;5091361;28;20601;-23
2022/11/06 12:21:34;;;;;;;;;;;13.90;99.90;;;;;;5091920;28;20304;-23
2022/11/06 12:24:12;;;;;;;;;;;13.90;99.90;;;;;;5091393;28;19908;-23
2022/11/06 12:26:43;;;;;;;;;;;13.90;99.90;;;;;;5091883;28;19908;-24
2022/11/06 12:29:16;;;;;;;;;;;13.80;99.90;;;;;;5091055;28;20362;-23
2022/11/06 12:32:02;;;;;;;;;;;13.80;99.90;;;;;;5091583;28;19908;-23
2022/11/06 12:34:32;;;;;;;;;;;13.80;99.90;;;;;;5091195;28;20023;-23
2022/11/06 12:37:18;;;;;;;;;;;13.70;99.90;;;;;;5091625;28;19908;-23
2022/11/06 12:39:48;;;;;;;;;;;13.70;99.90;;;;;;5092080;28;19918;-23
2022/11/06 12:42:13;;;;;;;;;;;13.70;99.90;;;;;;5091443;28;19938;-22
2022/11/06 12:44:39;;;;;;;;;;;13.70;99.90;;;;;;5091239;28;20440;-23
2022/11/06 12:47:22;;;;;;;;;;;13.70;99.90;;;;;;5091411;28;19908;-23
2022/11/06 12:49:50;;;;;;;;;;;13.70;99.90;;;;;;5091505;28;19957;-23
2022/11/06 12:52:16;;;;;;;;;;;13.70;99.90;;;;;;5091348;28;19915;-23
2022/11/06 12:54:47;;;;;;;;;;;13.70;99.90;;;;;;5091213;28;19908;-23
2022/11/06 12:57:13;;;;;;;;;;;13.60;99.90;;;;;;5091298;28;19923;-22
2022/11/06 12:59:47;;;;;;;;;;;13.70;99.90;;;;;;5091365;28;19909;-23
2022/11/06 13:02:31;;;;;;;;;;;13.70;99.90;;;;;;5091312;28;20018;-23
2022/11/06 13:05:00;;;;;;;;;;;13.70;99.90;;;;;;5091522;28;20025;-23
2022/11/06 13:07:37;;;;;;;;;;;13.60;99.90;;;;;;5091453;28;19919;-23
2022/11/06 13:10:12;;;;;;;;;;;13.60;99.90;;;;;;5091301;28;20006;-23
2022/11/06 13:12:37;;;;;;;;;;;13.60;99.90;;;;;;5090932;28;20018;-23
2022/11/06 13:15:23;;;;;;;;;;;13.60;99.90;;;;;;5091172;28;20469;-23
2022/11/06 13:17:52;;;;;;;;;;;13.60;99.90;;;;;;5091186;28;20292;-23
2022/11/06 13:20:24;;;;;;;;;;;13.60;99.90;;;;;;5091263;28;20372;-23
2022/11/06 13:23:18;;;;;;;;;;;13.60;99.90;;;;;;5090840;28;19953;-23
2022/11/06 13:25:52;;;;;;;;;;;13.60;99.90;;;;;;5081909;28;19938;-23
2022/11/06 13:28:23;;;;;;;;;;;13.50;99.90;;;;;;5090933;28;20540;-23
2022/11/06 13:30:50;;;;;;;;;;;13.50;99.90;;;;;;5092158;28;19916;-23
2022/11/06 13:33:19;;;;;;;;;;;13.50;99.90;;;;;;5094664;28;19934;-23
2022/11/06 13:35:45;;;;;;;;;;;13.50;99.90;;;;;;5094906;28;20361;-22
2022/11/06 13:38:16;;;;;;;;;;;13.50;99.90;;;;;;5094641;28;19916;-23
2022/11/06 13:40:43;;;;;;;;;;;13.50;99.90;;;;;;5094615;28;19955;-23
2022/11/06 13:43:08;;;;;;;;;;;13.40;99.90;;;;;;5094634;28;19912;-23
2022/11/06 13:45:41;;;;;;;;;;;13.50;99.90;;;;;;5094499;28;19939;-23
2022/11/06 13:48:17;;;;;;;;;;;13.50;99.90;;;;;;5094728;28;19912;-23
2022/11/06 13:50:48;;;;;;;;;;;13.50;99.90;;;;;;5094743;28;19919;-23
2022/11/06 13:53:20;;;;;;;;;;;13.40;99.90;;;;;;5094318;28;19908;-23
2022/11/06 13:55:52;;;;;;;;;;;13.40;99.90;;;;;;5094970;28;19969;-23
2022/11/06 13:58:17;;;;;;;;;;;13.40;99.90;;;;;;5094520;28;19999;-23
2022/11/06 14:00:55;;;;;;;;;;;13.40;99.90;;;;;;5094479;28;20011;-23
2022/11/06 14:03:32;;;;;;;;;;;13.40;99.90;;;;;;5094276;28;19931;-23
2022/11/06 14:06:13;;;;;;;;;;;13.40;99.90;;;;;;5094459;28;19912;-23
2022/11/06 14:08:41;;;;;;;;;;;13.40;99.90;;;;;;5094351;28;19919;-23
2022/11/06 14:11:17;;;;;;;;;;;13.40;99.90;;;;;;5094289;28;19908;-23
2022/11/06 14:14:05;;;;;;;;;;;13.40;99.90;;;;;;5093871;28;20303;-23
2022/11/06 14:16:32;;;;;;;;;;;13.40;99.90;;;;;;5097618;28;19908;-23
2022/11/06 14:19:01;;;;;;;;;;;13.30;99.90;;;;;;5097161;28;19909;-23
2022/11/06 14:21:29;;;;;;;;;;;13.30;99.90;;;;;;5096927;28;20379;-23
2022/11/06 14:24:05;;;;;;;;;;;13.30;99.90;;;;;;5093665;28;19912;-23
2022/11/06 14:26:38;;;;;;;;;;;13.40;99.90;;;;;;5094359;28;19912;-23
2022/11/06 14:29:22;;;;;;;;;;;13.30;99.90;;;;;;5093989;28;19912;-23
2022/11/06 14:31:57;;;;;;;;;;;13.40;99.90;;;;;;5094019;28;19915;-23
2022/11/06 14:34:30;;;;;;;;;;;13.30;99.90;;;;;;5093276;28;19953;-23
2022/11/06 14:36:56;;;;;;;;;;;13.30;99.90;;;;;;5093849;28;20298;-23
2022/11/06 14:39:40;;;;;;;;;;;13.40;99.90;;;;;;5093663;28;19919;-23